Time;durP1;ratioP1;P1;durP2;ratioP2;P2;SDS_P1;SDS_P2;PMS_P1;PMS_P2;Temp;Humidity;BMP_temperature;BMP_pressure;BME280_temperature;BME280_humidity;BME280_pressure;Samples;Min_cycle;Max_cycle;Signal;HPM_P1;HPM_P2
2021/08/23 00:01:06;;;;;;;31.55;25.95;;;;;;;16.35;100.00;100903.88;5044830;28;20072;-80
2021/08/23 00:03:34;;;;;;;31.58;27.95;;;;;;;16.23;100.00;100907.47;5025076;28;20076;-82
2021/08/23 00:06:02;;;;;;;32.60;25.85;;;;;;;16.19;100.00;100903.38;5031854;28;20137;-81
2021/08/23 00:08:30;;;;;;;31.75;28.05;;;;;;;16.22;100.00;100905.78;5041133;28;20041;-82
2021/08/23 00:10:59;;;;;;;30.42;27.08;;;;;;;16.19;100.00;100895.38;5047838;28;20131;-80
2021/08/23 00:13:26;;;;;;;29.27;26.13;;;;;;;16.27;100.00;100897.47;5015024;28;20045;-81
2021/08/23 00:15:55;;;;;;;31.38;27.98;;;;;;;16.24;100.00;100895.03;5031065;28;20080;-82
2021/08/23 00:18:23;;;;;;;31.35;27.65;;;;;;;16.26;100.00;100899.28;5030320;28;20197;-80
2021/08/23 00:21:02;;;;;;;30.00;26.75;;;;;;;16.23;100.00;100896.84;5019172;28;20102;-81
2021/08/23 00:23:35;;;;;;;32.70;29.30;;;;;;;16.23;100.00;100896.84;5048969;28;20527;-82
2021/08/23 00:26:22;;;;;;;30.70;27.38;;;;;;;16.18;100.00;100894.56;5067738;28;20040;-82
2021/08/23 00:28:49;;;;;;;32.78;28.02;;;;;;;16.22;100.00;100895.16;5006029;28;20084;-79
2021/08/23 00:31:18;;;;;;;31.17;27.85;;;;;;;16.18;100.00;100893.72;5019435;28;20076;-82
2021/08/23 00:33:45;;;;;;;31.58;28.20;;;;;;;16.18;100.00;100894.56;5029855;28;20049;-79
2021/08/23 00:36:13;;;;;;;32.05;27.00;;;;;;;16.27;100.00;100890.34;5030958;28;20135;-79
2021/08/23 00:38:40;;;;;;;33.10;26.83;;;;;;;16.34;100.00;100890.69;5046707;28;20040;-79
2021/08/23 00:41:09;;;;;;;27.95;25.05;;;;;;;16.38;100.00;100884.16;5049691;28;20144;-78
2021/08/23 00:43:36;;;;;;;28.73;25.58;;;;;;;16.26;100.00;100895.78;5026637;28;20045;-81
2021/08/23 00:46:04;;;;;;;28.70;25.45;;;;;;;16.27;100.00;100897.47;5015129;28;20048;-81
2021/08/23 00:48:35;;;;;;;28.20;25.00;;;;;;;16.31;100.00;100889.13;5025669;28;20112;-79
2021/08/23 00:51:02;;;;;;;36.53;25.60;;;;;;;16.28;100.00;100888.53;5014974;28;20057;-80
2021/08/23 00:53:30;;;;;;;27.20;24.30;;;;;;;16.26;100.00;100890.47;5046104;28;20129;-78
2021/08/23 00:55:57;;;;;;;27.80;24.92;;;;;;;16.32;100.00;100884.66;5018811;28;20141;-81
2021/08/23 00:58:24;;;;;;;27.63;24.73;;;;;;;16.37;100.00;100885.97;5048514;28;20047;-79
2021/08/23 01:00:57;;;;;;;27.17;24.00;;;;;;;16.25;100.00;100891.41;5032530;28;20068;-78
2021/08/23 01:03:33;;;;;;;31.58;26.80;;;;;;;16.26;100.00;100890.47;5026075;28;20132;-80
2021/08/23 01:06:07;;;;;;;29.27;26.35;;;;;;;16.28;100.00;100883.19;5031840;28;20060;-80
2021/08/23 01:08:38;;;;;;;27.52;24.65;;;;;;;16.29;100.00;100877.75;5013699;28;20132;-80
2021/08/23 01:11:08;;;;;;;29.00;25.90;;;;;;;16.27;100.00;100887.69;5050376;28;20061;-80
2021/08/23 01:13:39;;;;;;;27.52;24.52;;;;;;;16.27;100.00;100900.13;5010423;28;20051;-83
2021/08/23 01:16:06;;;;;;;28.95;25.95;;;;;;;16.26;100.00;100896.63;5029747;28;20045;-80
2021/08/23 01:18:35;;;;;;;28.65;25.75;;;;;;;16.30;100.00;100891.88;5011553;28;20036;-78
2021/08/23 01:21:04;;;;;;;32.15;26.27;;;;;;;16.29;100.00;100896.34;5009786;28;20077;-82
2021/08/23 01:23:33;;;;;;;27.85;24.95;;;;;;;16.26;100.00;100893.13;5011498;28;20077;-81
2021/08/23 01:26:01;;;;;;;27.10;24.10;;;;;;;16.29;100.00;100883.06;5030729;28;20049;-79
2021/08/23 01:28:42;;;;;;;28.48;25.73;;;;;;;16.32;100.00;100892.63;5011074;28;20045;-81
2021/08/23 01:31:15;;;;;;;27.50;24.67;;;;;;;16.29;100.00;100893.69;5045185;28;20140;-80
2021/08/23 01:33:46;;;;;;;26.98;24.20;;;;;;;16.32;100.00;100889.97;5045834;28;20055;-80
2021/08/23 01:36:13;;;;;;;27.80;24.73;;;;;;;16.28;100.00;100907.13;5015338;28;20136;-79
2021/08/23 01:38:41;;;;;;;27.15;24.27;;;;;;;16.33;100.00;100891.66;5047028;28;20069;-81
2021/08/23 01:41:09;;;;;;;29.67;26.05;;;;;;;16.28;100.00;100886.69;5050112;28;20136;-79
2021/08/23 01:43:36;;;;;;;33.72;28.02;;;;;;;16.20;100.00;100892.59;5029015;28;20095;-80
2021/08/23 01:46:04;;;;;;;28.45;25.45;;;;;;;16.35;100.00;100887.06;5007882;28;20126;-79
2021/08/23 01:48:32;;;;;;;29.30;25.85;;;;;;;16.34;100.00;100882.72;5015955;28;20045;-81
2021/08/23 01:51:00;;;;;;;27.85;24.85;;;;;;;16.30;100.00;100887.44;5048505;28;20053;-82
2021/08/23 01:53:27;;;;;;;27.10;23.90;;;;;;;16.35;100.00;100887.06;5045127;28;20187;-82
2021/08/23 01:55:54;;;;;;;26.33;23.60;;;;;;;16.32;100.00;100877.53;5032130;28;20102;-80
2021/08/23 01:58:21;;;;;;;31.08;25.90;;;;;;;16.27;100.00;100881.53;5045903;28;20148;-82
2021/08/23 02:00:49;;;;;;;28.15;25.05;;;;;;;16.29;100.00;100888.38;5028157;28;20051;-79
2021/08/23 02:03:17;;;;;;;28.20;24.33;;;;;;;16.27;100.00;100887.69;5027710;28;20148;-81
2021/08/23 02:05:44;;;;;;;27.60;24.63;;;;;;;16.37;100.00;100885.13;5016478;28;20139;-81
2021/08/23 02:08:12;;;;;;;29.45;26.25;;;;;;;16.31;100.00;100882.97;5044995;28;20060;-80
2021/08/23 02:10:39;;;;;;;27.35;24.20;;;;;;;16.34;100.00;100885.38;5037078;28;20069;-80
2021/08/23 02:13:06;;;;;;;28.27;25.40;;;;;;;16.30;100.00;100887.44;5032601;28;20243;-81
2021/08/23 02:15:34;;;;;;;31.75;27.05;;;;;;;16.29;100.00;100891.03;5053620;28;20401;-82
2021/08/23 02:18:01;;;;;;;28.73;25.80;;;;;;;16.27;100.00;100887.69;5044982;28;20050;-84
2021/08/23 02:20:29;;;;;;;24.90;22.42;;;;;;;16.27;100.00;100887.69;5036502;28;20068;-79
2021/08/23 02:22:56;;;;;;;21.52;19.23;;;;;;;16.22;100.00;100889.84;5048859;28;20465;-82
2021/08/23 02:25:23;;;;;;;19.75;17.75;;;;;;;16.25;100.00;100888.75;4997521;28;20132;-80
2021/08/23 02:27:52;;;;;;;20.08;18.10;;;;;;;16.22;100.00;100883.69;5046797;28;20132;-80
2021/08/23 02:30:20;;;;;;;18.88;17.10;;;;;;;16.24;100.00;100900.34;5012253;28;20055;-80
2021/08/23 02:32:47;;;;;;;19.33;17.50;;;;;;;16.17;100.00;100890.22;4995690;28;20128;-79
2021/08/23 02:35:15;;;;;;;18.77;16.98;;;;;;;16.13;100.00;100894.06;5048556;28;20063;-80
2021/08/23 02:37:42;;;;;;;18.13;16.33;;;;;;;16.13;100.00;100895.88;5026072;28;20140;-79
2021/08/23 02:40:10;;;;;;;17.20;15.52;;;;;;;16.11;100.00;100895.13;5033288;28;20068;-81
2021/08/23 02:42:37;;;;;;;16.20;14.60;;;;;;;16.05;100.00;100907.09;5013341;28;20057;-81
2021/08/23 02:45:05;;;;;;;15.60;14.27;;;;;;;16.13;100.00;100907.34;5010977;28;20060;-80
2021/08/23 02:47:36;;;;;;;14.73;13.30;;;;;;;16.10;100.00;100910.22;5028174;28;21132;-79
2021/08/23 02:50:08;;;;;;;14.27;12.82;;;;;;;16.08;100.00;100908.69;5048538;28;20045;-80
2021/08/23 02:52:35;;;;;;;13.95;11.85;;;;;;;16.09;100.00;100907.72;5028708;28;20538;-82
2021/08/23 02:55:04;;;;;;;11.68;10.60;;;;;;;16.01;100.00;100908.28;5016587;28;20069;-80
2021/08/23 02:57:31;;;;;;;12.57;11.02;;;;;;;16.00;100.00;100913.72;5017136;28;20053;-79
2021/08/23 02:59:59;;;;;;;10.13;9.13;;;;;;;15.98;100.00;100911.16;5029326;28;20049;-81
2021/08/23 03:02:27;;;;;;;9.48;8.60;;;;;;;15.91;100.00;100916.13;5044277;28;20040;-78
2021/08/23 03:04:54;;;;;;;9.57;8.60;;;;;;;15.85;100.00;100915.72;5032721;28;20084;-82
2021/08/23 03:07:21;;;;;;;8.23;7.43;;;;;;;15.90;100.00;100916.25;5028683;28;20222;-80
2021/08/23 03:09:48;;;;;;;7.63;6.93;;;;;;;15.86;100.00;100915.63;5032265;28;20087;-78
2021/08/23 03:12:16;;;;;;;5.75;5.15;;;;;;;15.70;100.00;100915.94;4996021;28;20122;-79
2021/08/23 03:14:43;;;;;;;5.78;5.03;;;;;;;15.61;100.00;100907.78;5018525;28;20075;-78
2021/08/23 03:17:11;;;;;;;7.10;5.93;;;;;;;15.59;100.00;100913.22;5027070;28;20586;-82
2021/08/23 03:19:38;;;;;;;6.55;5.80;;;;;;;15.56;100.00;100917.91;4995095;28;20131;-78
2021/08/23 03:22:05;;;;;;;6.28;5.72;;;;;;;15.56;100.00;100916.09;5022142;28;20128;-81
2021/08/23 03:24:32;;;;;;;7.07;6.47;;;;;;;15.59;100.00;100918.53;4995782;28;20387;-79
2021/08/23 03:27:00;;;;;;;8.63;7.82;;;;;;;15.61;100.00;100913.94;5011362;28;20049;-81
2021/08/23 03:29:27;;;;;;;8.73;7.82;;;;;;;15.63;100.00;100913.84;5024954;28;20094;-82
2021/08/23 03:31:54;;;;;;;10.23;9.23;;;;;;;15.63;100.00;100920.00;5065076;28;20063;-86
2021/08/23 03:34:21;;;;;;;11.48;9.70;;;;;;;15.59;100.00;100918.53;5039260;28;20076;-81
2021/08/23 03:36:49;;;;;;;10.75;9.75;;;;;;;15.55;100.00;100921.53;5028803;28;20141;-78
2021/08/23 03:39:20;;;;;;;11.63;10.63;;;;;;;15.52;100.00;100925.25;5047992;28;20080;-79
2021/08/23 03:41:47;;;;;;;11.05;9.95;;;;;;;15.51;100.00;100922.72;5030315;28;20683;-83
2021/08/23 03:44:14;;;;;;;9.95;9.05;;;;;;;15.42;100.00;100926.91;5035129;28;20524;-79
2021/08/23 03:46:41;;;;;;;10.93;8.50;;;;;;;15.30;100.00;100930.47;5031290;28;20106;-81
2021/08/23 03:49:10;;;;;;;9.60;8.25;;;;;;;15.23;100.00;100923.94;5000257;28;20123;-82
2021/08/23 03:51:37;;;;;;;9.70;8.32;;;;;;;15.15;100.00;100924.50;5034340;28;20076;-80
2021/08/23 03:54:05;;;;;;;10.70;9.57;;;;;;;15.14;100.00;100933.41;5029609;28;20143;-79
2021/08/23 03:56:32;;;;;;;14.05;11.05;;;;;;;15.13;100.00;100929.91;5047798;28;20045;-81
2021/08/23 03:58:59;;;;;;;12.23;9.73;;;;;;;15.10;100.00;100927.47;5017231;28;20135;-80
2021/08/23 04:01:26;;;;;;;12.20;10.80;;;;;;;15.08;100.00;100928.53;5000377;28;20425;-85
2021/08/23 04:03:54;;;;;;;14.23;11.85;;;;;;;15.04;100.00;100930.59;5001406;28;20148;-82
2021/08/23 04:06:21;;;;;;;14.27;12.00;;;;;;;15.04;100.00;100932.38;5052499;28;20451;-80
2021/08/23 04:08:48;;;;;;;13.65;11.95;;;;;;;14.98;100.00;100938.13;5015358;28;20150;-79
2021/08/23 04:11:16;;;;;;;13.65;12.18;;;;;;;14.98;100.00;100943.44;5017361;28;20442;-81
2021/08/23 04:13:43;;;;;;;12.57;11.27;;;;;;;14.96;100.00;100946.19;5030370;28;20136;-83
2021/08/23 04:16:16;;;;;;;14.00;12.50;;;;;;;14.97;100.00;100952.34;5033320;28;20140;-81
2021/08/23 04:18:44;;;;;;;15.93;12.80;;;;;;;14.88;100.00;100945.91;5030378;28;20110;-85
2021/08/23 04:21:11;;;;;;;12.93;11.52;;;;;;;14.79;100.00;100954.50;5035775;28;20045;-82
2021/08/23 04:23:38;;;;;;;13.88;10.32;;;;;;;14.74;100.00;100962.78;5031091;28;20041;-82
2021/08/23 04:26:05;;;;;;;11.10;9.30;;;;;;;14.66;100.00;100979.22;5021680;28;20072;-85
2021/08/23 04:28:37;;;;;;;11.82;9.85;;;;;;;14.56;100.00;100972.88;5019064;28;20072;-83
2021/08/23 04:31:04;;;;;;;9.45;8.45;;;;;;;14.48;100.00;100969.91;5021184;28;20060;-82
2021/08/23 04:33:31;;;;;;;9.43;7.97;;;;;;;14.43;100.00;100977.31;5023899;28;20045;-85
2021/08/23 04:35:59;;;;;;;9.95;8.38;;;;;;;14.39;100.00;100981.13;5052503;28;20528;-85
2021/08/23 04:38:26;;;;;;;11.68;8.02;;;;;;;14.34;100.00;100977.94;5000334;28;20053;-86
2021/08/23 04:40:53;;;;;;;13.93;8.15;;;;;;;14.33;100.00;100982.41;5026047;28;20052;-84
2021/08/23 04:43:20;;;;;;;12.95;8.45;;;;;;;14.36;100.00;100986.63;5013297;28;20079;-83
2021/08/23 04:45:48;;;;;;;9.43;7.13;;;;;;;14.35;100.00;100990.22;5034524;28;20045;-85
2021/08/23 04:48:15;;;;;;;10.13;6.97;;;;;;;14.35;100.00;100995.53;5006029;28;20126;-86
2021/08/23 04:50:42;;;;;;;12.70;8.43;;;;;;;14.37;100.00;100994.47;5054091;28;20048;-88
2021/08/23 04:53:09;;;;;;;10.23;8.23;;;;;;;14.31;100.00;100994.03;5048363;28;20065;-87
2021/08/23 04:55:36;;;;;;;13.10;8.05;;;;;;;14.32;100.00;100998.38;5033278;28;20273;-90
2021/08/23 04:58:04;;;;;;;10.73;8.00;;;;;;;14.29;100.00;101002.09;5039662;28;20139;-88
2021/08/23 05:00:31;;;;;;;8.73;7.03;;;;;;;14.23;100.00;100999.88;5063089;28;20072;-86
2021/08/23 05:02:58;;;;;;;9.65;7.20;;;;;;;14.14;100.00;101011.94;5053136;28;20087;-84
2021/08/23 05:05:25;;;;;;;11.45;6.80;;;;;;;14.12;100.00;101008.53;5025948;28;20041;-89
2021/08/23 05:07:53;;;;;;;7.38;6.25;;;;;;;14.16;100.00;101011.81;5031335;28;20037;-86
2021/08/23 05:10:21;;;;;;;8.98;6.07;;;;;;;14.09;100.00;101013.19;5037526;28;20162;-82
2021/08/23 05:12:48;;;;;;;7.32;6.03;;;;;;;14.03;100.00;101008.31;5047702;28;20044;-82
2021/08/23 05:15:15;;;;;;;7.80;5.35;;;;;;;14.05;100.00;101017.84;5056629;28;20049;-86
2021/08/23 05:17:42;;;;;;;6.57;5.68;;;;;;;14.01;100.00;101016.38;5031484;28;20059;-82
2021/08/23 05:20:11;;;;;;;8.18;4.90;;;;;;;14.02;100.00;101015.41;5050708;28;20049;-83
2021/08/23 05:22:38;;;;;;;8.55;5.13;;;;;;;13.97;100.00;101024.59;5028348;28;20045;-85
2021/08/23 05:25:07;;;;;;;9.65;5.47;;;;;;;13.94;100.00;101026.50;5041310;28;20041;-87
2021/08/23 05:27:34;;;;;;;7.20;5.53;;;;;;;13.92;100.00;101033.69;5037360;28;20060;-83
2021/08/23 05:30:06;;;;;;;9.70;5.70;;;;;;;13.88;100.00;101016.31;5031529;28;20562;-83
2021/08/23 05:32:59;;;;;;;7.20;4.57;;;;;;;14.01;100.00;101024.31;5032475;28;20068;-80
2021/08/23 05:35:26;;;;;;;9.00;4.20;;;;;;;13.97;100.00;101025.44;5030399;28;20045;-80
2021/08/23 05:37:54;;;;;;;7.28;5.53;;;;;;;14.05;100.00;101027.56;5027293;28;20053;-82
2021/08/23 05:40:26;;;;;;;6.40;5.00;;;;;;;14.04;100.00;101026.72;5012050;28;20140;-81
2021/08/23 05:43:01;;;;;;;11.65;4.72;;;;;;;14.08;100.00;101025.56;5026410;28;20103;-82
2021/08/23 05:45:29;;;;;;;7.03;4.75;;;;;;;14.06;100.00;101030.13;5038923;28;20053;-83
2021/08/23 05:47:57;;;;;;;5.28;4.63;;;;;;;14.15;100.00;101031.31;5017819;28;20067;-79
2021/08/23 05:50:24;;;;;;;8.73;3.83;;;;;;;14.15;100.00;101029.50;5033876;28;20057;-80
2021/08/23 05:52:51;;;;;;;9.13;4.78;;;;;;;14.21;100.00;101035.34;5036653;28;20041;-81
2021/08/23 05:55:18;;;;;;;5.40;4.45;;;;;;;14.23;100.00;101042.25;5033242;28;20385;-79
2021/08/23 05:57:45;;;;;;;8.55;4.97;;;;;;;14.28;100.00;101037.47;5046977;28;20075;-80
2021/08/23 06:00:17;;;;;;;10.18;4.10;;;;;;;14.33;100.00;101026.56;5052284;28;20136;-81
2021/08/23 06:02:44;;;;;;;4.38;3.92;;;;;;;14.39;100.00;101036.75;5012582;28;20388;-79
2021/08/23 06:05:12;;;;;;;7.47;3.65;;;;;;;14.38;100.00;101037.69;5011082;28;20156;-80
2021/08/23 06:07:40;;;;;;;5.53;4.18;;;;;;;14.46;100.00;101043.31;5025976;28;20049;-78
2021/08/23 06:10:10;;;;;;;7.57;3.92;;;;;;;14.50;100.00;101042.19;5032372;28;20494;-78
2021/08/23 06:12:37;;;;;;;9.10;3.92;;;;;;;14.53;100.00;101049.91;5042111;28;20084;-77
2021/08/23 06:15:05;;;;;;;6.47;3.85;;;;;;;14.58;100.00;101041.66;5032257;28;20083;-77
2021/08/23 06:17:33;;;;;;;9.75;3.58;;;;;;;14.63;100.00;101044.81;5033883;28;20142;-78
2021/08/23 06:20:00;;;;;;;9.20;3.72;;;;;;;14.54;100.00;101046.31;5019228;28;20041;-77
2021/08/23 06:22:28;;;;;;;7.78;3.55;;;;;;;14.73;100.00;101043.25;5031202;28;20059;-77
2021/08/23 06:24:55;;;;;;;5.82;4.25;;;;;;;14.81;100.00;101050.66;5027549;28;20439;-79
2021/08/23 06:27:22;;;;;;;7.75;4.20;;;;;;;14.94;100.00;101054.13;5015526;28;20495;-76
2021/08/23 06:29:52;;;;;;;5.68;4.40;;;;;;;15.00;100.00;101043.13;5006710;28;20034;-77
2021/08/23 06:32:20;;;;;;;7.93;4.53;;;;;;;15.04;100.00;101044.59;5024905;28;20045;-78
2021/08/23 06:34:50;;;;;;;7.00;3.95;;;;;;;15.14;100.00;101044.78;5035674;28;20096;-81
2021/08/23 06:37:18;;;;;;;12.38;3.92;;;;;;;15.07;100.00;101049.66;5019303;28;20535;-78
2021/08/23 06:39:46;;;;;;;6.32;3.60;;;;;;;15.16;100.00;101054.31;5018931;28;20092;-77
2021/08/23 06:42:13;;;;;;;6.60;4.03;;;;;;;15.22;100.00;101058.34;5031342;28;20068;-78
2021/08/23 06:44:40;;;;;;;6.63;3.42;;;;;;;15.30;100.00;101068.41;4981686;28;20068;-78
2021/08/23 06:47:08;;;;;;;4.80;3.33;;;;;;;15.43;100.00;101070.06;5013623;28;20132;-79
2021/08/23 06:49:35;;;;;;;10.23;3.65;;;;;;;15.33;100.00;101066.38;5034135;28;20413;-78
2021/08/23 06:52:02;;;;;;;4.50;3.70;;;;;;;15.38;100.00;101066.03;5030978;28;20113;-79
2021/08/23 06:54:30;;;;;;;9.75;3.80;;;;;;;15.33;100.00;101078.78;5018142;28;20075;-79
2021/08/23 06:56:57;;;;;;;5.90;3.58;;;;;;;15.41;100.00;101077.28;5036772;28;20524;-80
2021/08/23 06:59:27;;;;;;;12.50;4.03;;;;;;;15.62;100.00;101077.53;5029481;28;20080;-78
2021/08/23 07:01:56;;;;;;;4.88;3.35;;;;;;;15.67;100.00;101091.38;5051395;28;20052;-78
2021/08/23 07:04:24;;;;;;;7.78;3.20;;;;;;;15.61;100.00;101081.13;5033664;28;20102;-79
2021/08/23 07:06:52;;;;;;;8.48;3.90;;;;;;;15.36;100.00;101086.53;5023551;28;20052;-79
2021/08/23 07:09:19;;;;;;;5.57;3.20;;;;;;;15.09;100.00;101087.53;5028742;28;20052;-79
2021/08/23 07:11:46;;;;;;;8.13;3.90;;;;;;;15.05;100.00;101083.41;5029552;28;20184;-77
2021/08/23 07:14:13;;;;;;;10.73;3.50;;;;;;;14.99;100.00;101091.78;5014489;28;20342;-78
2021/08/23 07:16:41;;;;;;;10.40;3.90;;;;;;;15.00;100.00;101092.66;5032275;28;20435;-79
2021/08/23 07:19:08;;;;;;;7.07;3.58;;;;;;;14.87;100.00;101096.16;5021548;28;20095;-83
2021/08/23 07:21:35;;;;;;;10.88;3.50;;;;;;;14.78;100.00;101095.94;5020477;28;20490;-81
2021/08/23 07:24:03;;;;;;;6.05;4.22;;;;;;;14.83;100.00;101091.16;5028500;28;20056;-78
2021/08/23 07:26:30;;;;;;;5.88;3.53;;;;;;;14.86;100.00;101102.41;5019721;28;20064;-80
2021/08/23 07:28:58;;;;;;;3.45;2.85;;;;;;;14.88;100.00;101105.78;5055155;28;20186;-78
2021/08/23 07:31:25;;;;;;;9.07;3.92;;;;;;;14.91;100.00;101112.69;5021139;28;20081;-78
2021/08/23 07:33:53;;;;;;;5.40;3.60;;;;;;;15.01;100.00;101113.75;5034756;28;20072;-79
2021/08/23 07:36:20;;;;;;;3.72;2.92;;;;;;;15.05;100.00;101109.94;5046412;28;20049;-79
2021/08/23 07:38:47;;;;;;;7.13;3.03;;;;;;;15.12;100.00;101113.81;5026212;28;20132;-79
2021/08/23 07:41:15;;;;;;;4.13;3.20;;;;;;;15.23;100.00;101112.25;5044532;28;20144;-79
2021/08/23 07:43:43;;;;;;;9.68;2.97;;;;;;;15.37;100.00;101117.41;5038416;28;20144;-79
2021/08/23 07:46:10;;;;;;;3.70;3.10;;;;;;;15.50;100.00;101115.59;5042694;28;20147;-78
2021/08/23 07:48:37;;;;;;;7.38;3.20;;;;;;;15.37;99.27;101118.25;5030861;28;20045;-79
2021/08/23 07:51:05;;;;;;;5.32;2.95;;;;;;;15.27;99.51;101129.66;5034080;28;20045;-80
2021/08/23 07:53:33;;;;;;;5.53;3.00;;;;;;;15.04;100.00;101134.75;5033508;28;20160;-80
2021/08/23 07:56:05;;;;;;;4.63;3.28;;;;;;;14.97;100.00;101133.47;5037839;28;20143;-80
2021/08/23 07:58:34;;;;;;;5.03;3.33;;;;;;;15.06;100.00;101138.13;5047421;28;20057;-77
2021/08/23 08:01:03;;;;;;;7.07;2.92;;;;;;;15.11;99.76;101143.97;5040870;28;20061;-76
2021/08/23 08:03:30;;;;;;;8.68;3.60;;;;;;;15.29;99.11;101146.28;5017302;28;20377;-78
2021/08/23 08:05:58;;;;;;;5.45;3.10;;;;;;;15.27;99.07;101151.72;5023181;28;20499;-78
2021/08/23 08:08:25;;;;;;;7.22;3.03;;;;;;;15.23;97.73;101149.38;4998940;28;20103;-75
2021/08/23 08:10:55;;;;;;;4.68;3.10;;;;;;;15.23;97.09;101160.84;5037349;28;20068;-79
2021/08/23 08:13:23;;;;;;;4.15;2.55;;;;;;;15.26;97.07;101157.94;5000497;28;20041;-78
2021/08/23 08:15:52;;;;;;;7.90;3.20;;;;;;;15.21;97.70;101152.13;5051620;28;20055;-77
2021/08/23 08:18:19;;;;;;;4.68;2.88;;;;;;;15.13;97.76;101157.97;5016153;28;20035;-78
2021/08/23 08:20:46;;;;;;;6.13;3.45;;;;;;;15.04;98.36;101158.63;4994622;28;20037;-78
2021/08/23 08:23:16;;;;;;;6.60;3.10;;;;;;;14.92;98.99;101165.59;5034661;28;20043;-79
2021/08/23 08:25:44;;;;;;;6.55;2.90;;;;;;;14.91;99.79;101163.06;5049828;28;20132;-78
2021/08/23 08:28:13;;;;;;;6.18;3.28;;;;;;;14.76;100.00;101172.03;4998293;28;20048;-79
2021/08/23 08:30:40;;;;;;;6.57;3.30;;;;;;;14.55;100.00;101175.19;5030771;28;20085;-80
2021/08/23 08:33:08;;;;;;;9.00;2.80;;;;;;;14.52;100.00;101174.53;5037804;28;20637;-80
2021/08/23 08:35:35;;;;;;;8.18;2.83;;;;;;;14.65;100.00;101186.88;5044065;28;20053;-79
2021/08/23 08:38:04;;;;;;;7.30;2.92;;;;;;;14.68;100.00;101191.97;5001711;28;20049;-79
2021/08/23 08:40:33;;;;;;;7.43;2.70;;;;;;;14.82;100.00;101187.53;5014995;28;20044;-77
2021/08/23 08:43:02;;;;;;;5.93;2.75;;;;;;;14.89;99.64;101184.34;5033045;28;20084;-77
2021/08/23 08:45:30;;;;;;;6.78;3.03;;;;;;;15.04;99.04;101184.25;5032724;28;20174;-79
2021/08/23 08:48:02;;;;;;;5.40;2.47;;;;;;;15.09;97.41;101188.31;5025225;28;20371;-78
2021/08/23 08:50:33;;;;;;;5.68;2.55;;;;;;;15.13;97.12;101191.56;5015025;28;20045;-79
2021/08/23 08:53:06;;;;;;;3.60;2.00;;;;;;;15.12;96.00;101189.88;5028720;28;20060;-77
2021/08/23 08:55:36;;;;;;;3.85;2.13;;;;;;;15.19;95.73;101199.97;5017403;28;20068;-79
2021/08/23 08:58:06;;;;;;;5.90;2.30;;;;;;;15.16;94.76;101194.03;5027730;28;20171;-79
2021/08/23 09:00:38;;;;;;;5.10;2.30;;;;;;;15.15;94.74;101185.22;5048889;28;20060;-79
2021/08/23 09:03:08;;;;;;;4.82;2.47;;;;;;;15.27;95.19;101190.66;4999624;28;20352;-78
2021/08/23 09:05:42;;;;;;;5.38;2.25;;;;;;;15.42;93.24;101213.44;5020642;28;20063;-79
2021/08/23 09:08:10;;;;;;;3.80;1.92;;;;;;;15.64;91.48;101200.41;5026185;28;20110;-77
2021/08/23 09:10:42;;;;;;;3.97;2.55;;;;;;;15.80;90.08;101212.56;5036200;28;20090;-79
2021/08/23 09:13:13;;;;;;;6.30;2.35;;;;;;;15.92;87.78;101204.56;5031423;28;20079;-76
2021/08/23 09:15:55;;;;;;;3.20;1.95;;;;;;;16.10;86.47;101215.66;5034990;28;20132;-78
2021/08/23 09:18:24;;;;;;;5.50;2.13;;;;;;;16.29;85.31;101214.31;5032678;28;20036;-78
2021/08/23 09:21:10;;;;;;;3.75;1.85;;;;;;;16.34;84.43;101209.50;5033851;28;20075;-79
2021/08/23 09:23:47;;;;;;;3.08;1.92;;;;;;;16.52;84.75;101220.59;5004534;28;20111;-75
2021/08/23 09:26:17;;;;;;;4.57;2.10;;;;;;;16.54;82.87;101211.56;5022740;28;20045;-77
2021/08/23 09:29:03;;;;;;;2.80;1.70;;;;;;;16.48;82.43;101222.66;5049722;28;20056;-80
2021/08/23 09:31:35;;;;;;;7.72;2.08;;;;;;;16.53;81.71;101214.34;5014906;28;20133;-81
2021/08/23 09:34:09;;;;;;;7.25;2.30;;;;;;;16.59;81.04;101228.00;5014028;28;20109;-76
2021/08/23 09:36:37;;;;;;;4.05;1.70;;;;;;;16.61;80.05;101231.38;5014412;28;20485;-78
2021/08/23 09:39:06;;;;;;;3.60;1.80;;;;;;;16.62;78.31;101232.25;5033201;28;20583;-77
2021/08/23 09:41:42;;;;;;;2.85;1.42;;;;;;;16.53;77.80;101236.44;5030004;28;20053;-78
2021/08/23 09:44:11;;;;;;;3.78;1.25;;;;;;;16.44;77.56;101229.16;5015213;28;20053;-74
2021/08/23 09:46:41;;;;;;;5.68;2.03;;;;;;;16.39;77.65;101245.44;5034171;28;20059;-77
2021/08/23 09:49:11;;;;;;;4.53;2.08;;;;;;;16.44;77.99;101229.16;5014885;28;20108;-78
2021/08/23 09:51:40;;;;;;;3.40;1.75;;;;;;;16.56;77.13;101241.50;5017395;28;20049;-76
2021/08/23 09:54:16;;;;;;;5.15;2.20;;;;;;;16.67;76.80;101240.72;5047824;28;20044;-79
2021/08/23 09:56:47;;;;;;;4.97;1.65;;;;;;;16.63;76.69;101242.78;5032470;28;20059;-79
2021/08/23 09:59:21;;;;;;;3.35;1.70;;;;;;;16.60;76.00;101247.47;5040602;28;20045;-79
2021/08/23 10:01:51;;;;;;;3.47;1.83;;;;;;;16.68;74.70;101251.25;5045502;28;20049;-78
2021/08/23 10:04:19;;;;;;;3.03;1.98;;;;;;;16.63;74.15;101253.41;5030497;28;20055;-79
2021/08/23 10:06:49;;;;;;;3.28;1.60;;;;;;;16.56;70.08;101257.47;5028220;28;20037;-77
2021/08/23 10:09:22;;;;;;;3.33;1.65;;;;;;;16.58;70.39;101254.72;5031542;28;20067;-81
2021/08/23 10:11:51;;;;;;;5.18;2.35;;;;;;;16.64;70.79;101252.44;5049356;28;20103;-82
2021/08/23 10:14:19;;;;;;;3.67;1.55;;;;;;;16.61;68.03;101255.31;5030716;28;20144;-79
2021/08/23 10:16:47;;;;;;;5.93;1.80;;;;;;;16.66;68.09;101254.97;5026875;28;20106;-79
2021/08/23 10:19:14;;;;;;;3.00;1.52;;;;;;;16.60;66.45;101264.25;5033173;28;20072;-79
2021/08/23 10:21:48;;;;;;;9.70;1.55;;;;;;;16.57;67.38;101264.50;5035242;28;20407;-80
2021/08/23 10:24:21;;;;;;;4.55;1.85;;;;;;;16.50;68.29;101265.91;5026289;28;20055;-80
2021/08/23 10:26:49;;;;;;;2.78;1.67;;;;;;;16.50;67.99;101268.56;5024169;28;20071;-79
2021/08/23 10:29:16;;;;;;;7.43;2.03;;;;;;;16.49;67.08;101266.88;5047904;28;20044;-81
2021/08/23 10:31:44;;;;;;;5.55;2.08;;;;;;;16.55;67.67;101273.53;5014501;28;20657;-79
2021/08/23 10:34:19;;;;;;;7.68;2.10;;;;;;;16.50;67.15;101279.19;5038561;28;20057;-83
2021/08/23 10:36:52;;;;;;;4.18;1.92;;;;;;;16.44;66.82;101284.97;5026155;28;20120;-79
2021/08/23 10:39:24;;;;;;;2.90;1.58;;;;;;;16.41;67.33;101286.03;5027577;28;20493;-79
2021/08/23 10:41:54;;;;;;;7.07;1.75;;;;;;;16.05;70.11;101286.88;5027217;28;20055;-79
2021/08/23 10:44:32;;;;;;;4.40;1.80;;;;;;;15.35;75.85;101286.44;5000730;28;20117;-79
2021/08/23 10:47:04;;;;;;;3.65;2.38;;;;;;;14.88;80.00;101288.69;5009633;28;20045;-78
2021/08/23 10:49:41;;;;;;;8.75;1.88;;;;;;;14.71;83.70;101288.13;5047055;28;20037;-80
2021/08/23 10:52:12;;;;;;;7.07;1.90;;;;;;;14.48;86.76;101301.06;5018304;28;20766;-80
2021/08/23 10:54:43;;;;;;;12.45;2.72;;;;;;;14.47;87.75;101293.19;5035123;28;20095;-80
2021/08/23 10:57:13;;;;;;;5.22;2.30;;;;;;;14.56;87.95;101305.88;5028922;28;20057;-80
2021/08/23 10:59:58;;;;;;;10.07;2.30;;;;;;;14.59;88.08;101297.69;5046924;28;20056;-79
2021/08/23 11:02:36;;;;;;;6.10;3.60;;;;;;;14.63;87.49;101292.13;5028397;28;20420;-78
2021/08/23 11:05:07;;;;;;;5.10;2.80;;;;;;;14.66;87.92;101296.38;5030134;28;20107;-80
2021/08/23 11:07:36;;;;;;;5.60;2.25;;;;;;;14.73;87.44;101291.53;5053087;28;20414;-82
2021/08/23 11:10:17;;;;;;;5.53;2.58;;;;;;;14.65;88.84;101292.88;5009994;28;20460;-78
2021/08/23 11:12:55;;;;;;;3.92;2.22;;;;;;;14.70;88.14;101287.28;5050831;28;20037;-80
2021/08/23 11:15:30;;;;;;;6.03;2.53;;;;;;;14.89;87.55;101284.25;5030733;28;20072;-79
2021/08/23 11:18:05;;;;;;;6.20;2.05;;;;;;;15.12;89.29;101288.84;5046056;28;20581;-77
2021/08/23 11:20:58;;;;;;;15.27;2.92;;;;;;;15.11;88.18;101283.66;5033070;28;20056;-79
2021/08/23 11:23:27;;;;;;;3.47;1.88;;;;;;;15.25;87.82;101291.53;5006982;28;20041;-79